LTCE Airport Information

Runway Information
Runway 05 Length 3051 ft width 49 ft
Elevation 0 ft Threshold 0 ft Heading 48
Runway 23 Length 3051 ft Width 49 ft
Elevation 0 ft Threshold 0 ft Heading 228
Runway 08L Length 12499 ft width 148 ft
Elevation 5764 ft Threshold 0 ft Heading 88
Runway 26R Length 12499 ft Width 148 ft
Elevation 5761 ft Threshold 0 ft Heading 268
Runway 08R Length 12500 ft width 98 ft
Elevation 5762 ft Threshold 0 ft Heading 88
Runway 26L Length 12500 ft Width 98 ft
Elevation 5757 ft Threshold 0 ft Heading 268
Airport Frequencies
Type APP Name APP Frequency 118.1 MHZ
Type GND Name GND Frequency 121.95 MHZ
Type TWR Name TWR Frequency 118.1 MHZ
Airport Navaids
Type NDB Name Erzurum Frequency 434 KHZ
Type TACAN Name Erzurum Frequency 111400 KHZ
Type VOR-DME Name Erzurum Frequency 115500 KHZ
Type NDB Name Erzurum Frequency 354 KHZ
Airport Weather Information & NOTAM
ADDS - METARS form results

(1735 UTC 18 March 2019)
Data provider http://aviationweather.gov/metar/data/
 
METAR text: LTCE 181720Z 14005KT CAVOK M08/M10 Q1018 NOSIG RMK RWY08R 22003KT 180V240 RWY26R 15005KT RWY08L VRB02KT
Conditions at: LTCE (ERZURUM (CIV/MIL, TR) observed 1720 UTC 18 March 2019
Temperature: -8.0°C (18°F)
Dewpoint: -10.0°C (14°F) [RH = 85%]
Pressure (altimeter): 30.06 inches Hg (1018.0 mb)
Winds: from the SE (140 degrees) at 6 MPH (5 knots; 2.6 m/s)
Visibility: 6 or more miles (10+ km)
Ceiling: ceiling and visibility are OK
Clouds: unknown
Weather: no significant weather observed at this time

METAR text: LTCE 181650Z 14005KT CAVOK M06/M09 Q1018 NOSIG RMK RWY08R VRB02KT RWY26R 14004KT RWY08L 11003KT 070V150
Conditions at: LTCE (ERZURUM (CIV/MIL, TR) observed 1650 UTC 18 March 2019
Temperature: -6.0°C (21°F)
Dewpoint: -9.0°C (16°F) [RH = 79%]
Pressure (altimeter): 30.06 inches Hg (1018.0 mb)
Winds: from the SE (140 degrees) at 6 MPH (5 knots; 2.6 m/s)
Visibility: 6 or more miles (10+ km)
Ceiling: ceiling and visibility are OK
Clouds: unknown
Weather: no significant weather observed at this time

Forecast for: LTCE (ERZURUM (CIV/MIL, TR)
Text: TAF LTCE 181640Z 1818/1918 VRB02KT CAVOK
Forecast period: 1800 UTC 18 March 2019 to 1800 UTC 19 March 2019
Forecast type: FROM: standard forecast or significant change
Winds: variable direction winds at 2 MPH (2 knots; 1.0 m/s)
Visibility: 6 or more miles 10+ km)
Ceiling: unknown
Clouds: missing
Weather: NSW  (no significant weather)